createdAt,value
2022-12-08T00:02:13.877Z,5.40
2022-12-08T00:05:04.894Z,5.40
2022-12-08T00:07:53.145Z,5.40
2022-12-08T00:10:47.712Z,5.40
2022-12-08T00:13:10.981Z,5.50
2022-12-08T00:15:39.196Z,5.50
2022-12-08T00:18:07.669Z,5.50
2022-12-08T00:20:35.843Z,5.40
2022-12-08T00:23:04.445Z,5.30
2022-12-08T00:25:32.774Z,5.20
2022-12-08T00:28:00.942Z,5.20
2022-12-08T00:30:30.462Z,5.20
2022-12-08T00:32:58.635Z,5.30
2022-12-08T00:35:26.797Z,5.20
2022-12-08T00:38:00.428Z,5.20
2022-12-08T00:40:29.242Z,5.10
2022-12-08T00:42:57.660Z,5.10
2022-12-08T00:45:25.872Z,5.10
2022-12-08T00:47:55.397Z,5.10
2022-12-08T00:50:23.624Z,5.10
2022-12-08T00:52:51.791Z,5.00
2022-12-08T00:55:19.971Z,5.00
2022-12-08T00:57:48.196Z,5.00
2022-12-08T01:00:16.951Z,4.90
2022-12-08T01:02:45.090Z,5.00
2022-12-08T01:05:14.668Z,4.90
2022-12-08T01:07:42.934Z,4.90
2022-12-08T01:10:11.183Z,4.80
2022-12-08T01:12:39.381Z,4.70
2022-12-08T01:15:08.711Z,4.70
2022-12-08T01:17:38.578Z,4.70
2022-12-08T01:20:08.663Z,4.60
2022-12-08T01:22:38.255Z,4.60
2022-12-08T01:25:07.208Z,4.50
2022-12-08T01:27:35.490Z,4.50
2022-12-08T01:30:04.515Z,4.50
2022-12-08T01:32:32.854Z,4.50
2022-12-08T01:35:01.670Z,4.40
2022-12-08T01:37:30.941Z,4.40
2022-12-08T01:40:00.517Z,4.40
2022-12-08T01:42:29.972Z,4.30
2022-12-08T01:45:00.744Z,4.30
2022-12-08T01:47:35.436Z,4.30
2022-12-08T01:50:05.131Z,4.30
2022-12-08T01:52:38.390Z,4.20
2022-12-08T01:55:12.042Z,4.20
2022-12-08T01:57:44.915Z,4.20
2022-12-08T02:00:15.823Z,4.20
2022-12-08T02:02:53.407Z,4.20
2022-12-08T02:05:24.460Z,4.10
2022-12-08T02:07:53.595Z,4.10
2022-12-08T02:10:24.920Z,4.10
2022-12-08T02:12:56.804Z,4.10
2022-12-08T02:15:32.927Z,4.00
2022-12-08T02:18:10.463Z,4.00
2022-12-08T02:20:50.549Z,4.10
2022-12-08T02:23:31.985Z,4.00
2022-12-08T02:26:34.131Z,4.00
2022-12-08T02:29:25.308Z,4.00
2022-12-08T02:32:11.827Z,3.90
2022-12-08T02:34:45.450Z,3.80
2022-12-08T02:37:19.008Z,3.80
2022-12-08T02:39:56.888Z,3.70
2022-12-08T02:42:32.736Z,3.70
2022-12-08T02:45:04.917Z,3.70
2022-12-08T02:47:34.730Z,3.60
2022-12-08T02:50:04.676Z,3.60
2022-12-08T02:52:46.591Z,3.70
2022-12-08T02:55:24.162Z,3.70
2022-12-08T02:58:31.483Z,3.60
2022-12-08T03:01:15.165Z,3.60
2022-12-08T03:03:49.203Z,3.60
2022-12-08T03:06:29.620Z,3.60
2022-12-08T03:09:03.644Z,3.50
2022-12-08T03:11:39.172Z,3.50
2022-12-08T03:14:10.490Z,3.50
2022-12-08T03:16:43.781Z,3.50
2022-12-08T03:19:17.901Z,3.50
2022-12-08T03:21:49.814Z,3.40
2022-12-08T03:24:19.794Z,3.40
2022-12-08T03:26:52.309Z,3.40
2022-12-08T03:29:20.801Z,3.30
2022-12-08T03:31:55.170Z,3.40
2022-12-08T03:34:26.553Z,3.50
2022-12-08T03:36:56.134Z,3.70
2022-12-08T03:39:24.352Z,3.50
2022-12-08T03:41:52.522Z,3.60
2022-12-08T03:44:20.752Z,3.60
2022-12-08T03:46:48.947Z,3.60
2022-12-08T03:49:17.135Z,3.50
2022-12-08T03:51:45.319Z,3.60
2022-12-08T03:54:14.851Z,3.60
2022-12-08T03:56:43.051Z,3.60
2022-12-08T03:59:12.377Z,3.70
2022-12-08T04:01:40.641Z,3.80
2022-12-08T04:04:08.887Z,3.80
2022-12-08T04:06:37.119Z,3.80
2022-12-08T04:09:05.450Z,3.80
2022-12-08T04:11:35.008Z,3.80
2022-12-08T04:14:03.246Z,3.80
2022-12-08T04:16:31.459Z,3.90
2022-12-08T04:18:59.716Z,3.90
2022-12-08T04:21:28.007Z,4.00
2022-12-08T04:24:00.793Z,3.90
2022-12-08T04:26:29.513Z,3.90
2022-12-08T04:28:59.036Z,4.00
2022-12-08T04:31:27.364Z,4.00
2022-12-08T04:33:55.624Z,4.00
2022-12-08T04:36:23.812Z,3.90
2022-12-08T04:38:52.124Z,3.90
2022-12-08T04:41:20.385Z,3.90
2022-12-08T04:43:48.518Z,4.00
2022-12-08T04:46:18.124Z,3.90
2022-12-08T04:48:47.856Z,3.80
2022-12-08T04:51:17.846Z,3.90
2022-12-08T04:53:47.238Z,3.90
2022-12-08T04:56:16.963Z,4.00
2022-12-08T04:58:45.212Z,3.90
2022-12-08T05:01:13.936Z,4.00
2022-12-08T05:03:43.683Z,3.90
2022-12-08T05:06:13.410Z,4.00
2022-12-08T05:08:41.806Z,4.00
2022-12-08T05:11:11.589Z,4.00
2022-12-08T05:13:39.817Z,4.00
2022-12-08T05:16:09.900Z,4.00
2022-12-08T05:18:39.207Z,4.10
2022-12-08T05:21:09.835Z,4.00
2022-12-08T05:23:38.042Z,4.20
2022-12-08T05:26:06.557Z,4.00
2022-12-08T05:28:43.604Z,4.10
2022-12-08T05:31:12.786Z,4.00
2022-12-08T05:33:41.566Z,3.90
2022-12-08T05:36:12.917Z,3.90
2022-12-08T05:38:41.362Z,3.90
2022-12-08T05:41:10.710Z,4.00
2022-12-08T05:43:38.889Z,4.10
2022-12-08T05:46:08.298Z,4.00
2022-12-08T05:48:36.865Z,3.90
2022-12-08T05:51:05.726Z,4.00
2022-12-08T05:53:35.254Z,4.00
2022-12-08T05:56:03.453Z,4.00
2022-12-08T05:58:31.622Z,4.00
2022-12-08T06:00:59.827Z,4.00
2022-12-08T06:03:28.125Z,3.90
2022-12-08T06:05:56.452Z,3.90
2022-12-08T06:08:24.761Z,3.80
2022-12-08T06:10:54.413Z,3.70
2022-12-08T06:13:22.632Z,3.80
2022-12-08T06:15:50.818Z,3.80
2022-12-08T06:18:18.999Z,3.80
2022-12-08T06:20:47.736Z,3.80
2022-12-08T06:23:15.941Z,3.70
2022-12-08T06:25:44.105Z,3.70
2022-12-08T06:28:13.658Z,3.70
2022-12-08T06:30:41.814Z,3.60
2022-12-08T06:33:10.029Z,3.70
2022-12-08T06:35:38.581Z,3.60
2022-12-08T06:38:06.774Z,3.60
2022-12-08T06:40:34.943Z,3.60
2022-12-08T06:43:03.141Z,3.60
2022-12-08T06:45:32.727Z,3.60
2022-12-08T06:48:02.977Z,3.60
2022-12-08T06:50:32.565Z,3.60
2022-12-08T06:53:05.070Z,3.60
2022-12-08T06:58:22.432Z,3.70
2022-12-08T07:00:52.061Z,3.60
2022-12-08T07:03:20.764Z,3.70
2022-12-08T07:05:48.974Z,3.70
2022-12-08T07:08:17.268Z,3.80
2022-12-08T07:10:45.483Z,3.80
2022-12-08T07:13:13.634Z,3.80
2022-12-08T07:15:41.852Z,3.80
2022-12-08T07:18:11.385Z,3.80
2022-12-08T07:20:40.299Z,3.80
2022-12-08T07:23:08.487Z,3.90
2022-12-08T07:25:36.763Z,3.90
2022-12-08T07:28:10.160Z,3.90
2022-12-08T07:30:38.979Z,3.80
2022-12-08T07:33:07.260Z,3.80
2022-12-08T07:35:36.834Z,3.90
2022-12-08T07:38:05.098Z,3.80
2022-12-08T07:40:33.465Z,3.80
2022-12-08T07:43:01.658Z,3.90
2022-12-08T07:45:31.746Z,3.80
2022-12-08T07:48:00.436Z,3.80
2022-12-08T07:50:28.624Z,3.90
2022-12-08T07:52:58.195Z,3.90
2022-12-08T07:55:26.715Z,3.90
2022-12-08T07:57:54.877Z,3.90
2022-12-08T08:00:23.285Z,3.90
2022-12-08T08:02:51.493Z,3.80
2022-12-08T08:05:20.628Z,3.80
2022-12-08T08:07:49.072Z,3.80
2022-12-08T08:10:19.121Z,3.80
2022-12-08T08:12:47.609Z,3.90
2022-12-08T08:15:15.887Z,3.90
2022-12-08T08:17:44.128Z,3.90
2022-12-08T08:20:13.268Z,4.00
2022-12-08T08:22:42.389Z,3.90
2022-12-08T08:25:10.771Z,4.00
2022-12-08T08:27:40.498Z,4.10
2022-12-08T08:30:15.355Z,4.10
2022-12-08T08:32:46.686Z,4.20
2022-12-08T08:35:15.311Z,4.30
2022-12-08T08:37:48.781Z,4.30
2022-12-08T08:40:18.448Z,4.40
2022-12-08T08:42:48.395Z,4.50
2022-12-08T08:45:16.858Z,4.50
2022-12-08T08:47:45.219Z,4.40
2022-12-08T08:50:13.570Z,4.50
2022-12-08T08:52:41.843Z,4.60
2022-12-08T08:55:10.627Z,4.60
2022-12-08T08:57:38.909Z,4.60
2022-12-08T09:00:10.669Z,4.60
2022-12-08T09:02:39.611Z,4.70
2022-12-08T09:05:08.751Z,4.80
2022-12-08T09:07:37.295Z,4.90
2022-12-08T09:10:06.591Z,4.90
2022-12-08T09:12:35.024Z,4.90
2022-12-08T09:15:03.512Z,4.90
2022-12-08T09:17:33.244Z,4.90
2022-12-08T09:20:02.030Z,4.90
2022-12-08T09:22:30.499Z,4.90
2022-12-08T09:24:59.813Z,4.90
2022-12-08T09:27:28.109Z,4.90
2022-12-08T09:29:57.213Z,4.80
2022-12-08T09:32:25.444Z,4.70
2022-12-08T09:34:55.930Z,4.80
2022-12-08T09:37:24.195Z,4.70
2022-12-08T09:39:53.547Z,4.70
2022-12-08T09:42:34.782Z,4.80
2022-12-08T09:45:06.999Z,4.90
2022-12-08T09:47:40.897Z,4.90
2022-12-08T09:50:16.947Z,4.90
2022-12-08T09:52:48.543Z,5.00
2022-12-08T09:55:24.618Z,5.00
2022-12-08T09:58:03.626Z,5.10
2022-12-08T10:00:32.049Z,5.10
2022-12-08T10:03:01.007Z,5.10
2022-12-08T10:05:35.240Z,5.10
2022-12-08T10:08:11.769Z,5.10
2022-12-08T10:10:43.489Z,5.10
2022-12-08T10:13:20.599Z,5.20
2022-12-08T10:15:58.584Z,5.20
2022-12-08T10:18:30.704Z,5.20
2022-12-08T10:21:14.464Z,5.30
2022-12-08T10:23:47.158Z,5.40
2022-12-08T10:26:17.816Z,5.50
2022-12-08T10:28:46.273Z,5.50
2022-12-08T10:31:21.286Z,5.60
2022-12-08T10:33:55.384Z,5.70
2022-12-08T10:36:28.737Z,5.70
2022-12-08T10:38:57.146Z,5.80
2022-12-08T10:41:26.155Z,5.70
2022-12-08T10:44:00.880Z,5.80
2022-12-08T10:46:31.239Z,5.90
2022-12-08T10:49:13.086Z,6.00
2022-12-08T10:51:43.778Z,6.10
2022-12-08T10:54:28.862Z,6.20
2022-12-08T10:56:58.052Z,6.40
2022-12-08T10:59:26.919Z,6.30
2022-12-08T11:01:57.316Z,6.30
2022-12-08T11:04:37.282Z,6.20
2022-12-08T11:07:10.964Z,6.10
2022-12-08T11:09:46.739Z,6.20
2022-12-08T11:12:17.057Z,6.30
2022-12-08T11:14:52.154Z,6.40
2022-12-08T11:17:27.282Z,6.50
2022-12-08T11:20:00.889Z,6.50
2022-12-08T11:22:33.804Z,6.70
2022-12-08T11:25:10.320Z,6.80
2022-12-08T11:27:40.938Z,6.90
2022-12-08T11:30:16.947Z,7.00
2022-12-08T11:32:47.370Z,6.80
2022-12-08T11:35:23.783Z,6.80
2022-12-08T11:38:03.337Z,6.90
2022-12-08T11:40:44.144Z,6.90
2022-12-08T11:43:17.676Z,7.10
2022-12-08T11:45:45.881Z,7.10
2022-12-08T11:48:17.933Z,7.10
2022-12-08T11:50:51.480Z,7.10
2022-12-08T11:53:27.919Z,7.00
2022-12-08T11:56:00.161Z,7.10
2022-12-08T11:58:35.936Z,7.00
2022-12-08T12:01:04.408Z,7.00
2022-12-08T12:03:37.783Z,7.20
2022-12-08T12:09:22.290Z,7.00
2022-12-08T12:12:16.522Z,6.80
2022-12-08T12:15:15.301Z,6.70
2022-12-08T12:17:48.859Z,6.70
2022-12-08T12:20:21.172Z,6.50
2022-12-08T12:22:53.026Z,6.40
2022-12-08T12:25:26.465Z,6.50
2022-12-08T12:27:59.319Z,6.40
2022-12-08T12:30:29.774Z,6.40
2022-12-08T12:33:02.227Z,6.20
2022-12-08T12:35:34.957Z,6.30
2022-12-08T12:38:28.302Z,6.30
2022-12-08T12:41:03.580Z,6.40
2022-12-08T12:43:33.787Z,6.40
2022-12-08T12:46:41.121Z,6.50
2022-12-08T12:49:43.806Z,6.40
2022-12-08T12:52:56.766Z,6.40
2022-12-08T12:55:55.895Z,6.50
2022-12-08T12:58:40.921Z,6.80
2022-12-08T13:01:54.216Z,7.00
2022-12-08T13:04:31.518Z,7.10
2022-12-08T13:07:00.589Z,7.20
2022-12-08T13:09:33.645Z,7.20
2022-12-08T13:12:10.217Z,7.30
2022-12-08T13:14:47.584Z,7.30
2022-12-08T13:17:21.976Z,7.30
2022-12-08T13:19:54.044Z,7.40
2022-12-08T13:22:51.497Z,7.20
2022-12-08T13:26:01.642Z,7.10
2022-12-08T13:28:31.807Z,7.00
2022-12-08T13:31:03.032Z,7.20
2022-12-08T13:33:33.591Z,7.30
2022-12-08T13:36:20.186Z,7.20
2022-12-08T13:38:50.747Z,7.10
2022-12-08T13:41:23.299Z,7.20
2022-12-08T13:44:50.242Z,7.20
2022-12-08T13:47:24.586Z,7.30
2022-12-08T13:58:20.801Z,7.30
2022-12-08T14:01:01.805Z,7.20
2022-12-08T14:03:32.150Z,7.10
2022-12-08T14:06:12.576Z,7.00
2022-12-08T14:09:00.329Z,6.90
2022-12-08T14:11:36.647Z,6.90
2022-12-08T14:14:07.653Z,6.80
2022-12-08T14:16:39.474Z,6.80
2022-12-08T14:19:18.090Z,6.60
2022-12-08T14:21:54.631Z,6.60
2022-12-08T14:24:24.126Z,6.50
2022-12-08T14:26:55.480Z,6.40
2022-12-08T14:29:43.309Z,6.40
2022-12-08T14:32:24.184Z,6.40
2022-12-08T14:34:55.793Z,6.30
2022-12-08T14:37:26.067Z,6.30
2022-12-08T14:39:58.690Z,6.10
2022-12-08T14:42:28.854Z,6.10
2022-12-08T14:45:00.153Z,6.10
2022-12-08T14:47:33.391Z,6.00
2022-12-08T14:50:05.318Z,5.90
2022-12-08T14:52:33.831Z,5.90
2022-12-08T14:55:02.242Z,5.80
2022-12-08T14:57:36.567Z,5.80
2022-12-08T15:00:22.054Z,5.80
2022-12-08T15:02:50.543Z,5.70
2022-12-08T15:05:22.776Z,5.70
2022-12-08T15:07:53.078Z,5.60
2022-12-08T15:10:27.516Z,5.60
2022-12-08T15:13:05.784Z,5.70
2022-12-08T15:15:47.366Z,5.70
2022-12-08T15:18:18.259Z,5.60
2022-12-08T15:20:51.478Z,5.70
2022-12-08T15:23:28.111Z,5.60
2022-12-08T15:25:56.982Z,5.60
2022-12-08T15:28:30.053Z,5.60
2022-12-08T15:30:59.722Z,5.50
2022-12-08T15:33:28.239Z,5.40
2022-12-08T15:35:57.830Z,5.40
2022-12-08T15:38:28.702Z,5.40
2022-12-08T15:40:58.614Z,5.50
2022-12-08T15:43:27.615Z,5.50
2022-12-08T15:45:59.929Z,5.50
2022-12-08T15:48:30.856Z,5.50
2022-12-08T15:51:00.627Z,5.50
2022-12-08T15:53:28.922Z,5.30
2022-12-08T15:56:26.382Z,5.30
2022-12-08T15:58:53.510Z,5.30
2022-12-08T16:01:23.459Z,5.30
2022-12-08T16:07:20.111Z,5.30
2022-12-08T16:09:34.315Z,5.30
2022-12-08T16:12:20.572Z,5.30
2022-12-08T16:17:38.708Z,5.20
2022-12-08T16:20:10.045Z,5.10
2022-12-08T16:23:03.669Z,5.10
2022-12-08T16:25:46.269Z,5.10
2022-12-08T16:28:52.254Z,5.10
2022-12-08T16:31:13.007Z,5.10
2022-12-08T16:33:42.663Z,5.10
2022-12-08T16:36:12.031Z,5.10
2022-12-08T16:38:41.730Z,5.10
2022-12-08T16:41:32.976Z,5.10
2022-12-08T16:44:03.733Z,5.20
2022-12-08T16:46:32.340Z,5.10
2022-12-08T16:49:00.590Z,5.10
2022-12-08T16:51:28.840Z,5.10
2022-12-08T16:53:58.676Z,5.10
2022-12-08T16:56:32.556Z,5.10
2022-12-08T16:59:01.744Z,5.00
2022-12-08T17:01:30.326Z,4.90
2022-12-08T17:04:29.898Z,4.90
2022-12-08T17:06:46.940Z,4.80
2022-12-08T17:09:16.554Z,4.80
2022-12-08T17:11:44.975Z,4.70
2022-12-08T17:14:13.907Z,4.80
2022-12-08T17:16:42.839Z,4.80
2022-12-08T17:19:13.020Z,4.80
2022-12-08T17:21:41.310Z,4.80
2022-12-08T17:24:09.559Z,4.90
2022-12-08T17:26:39.120Z,5.00
2022-12-08T17:29:07.358Z,4.80
2022-12-08T17:31:35.824Z,4.70
2022-12-08T17:34:05.878Z,4.60
2022-12-08T17:36:34.176Z,4.50
2022-12-08T17:39:02.696Z,4.40
2022-12-08T17:41:30.945Z,4.10
2022-12-08T17:44:00.530Z,4.00
2022-12-08T17:46:29.220Z,3.90
2022-12-08T17:48:57.483Z,3.70
2022-12-08T17:51:25.751Z,3.70
2022-12-08T17:53:54.012Z,3.50
2022-12-08T17:56:22.923Z,3.40
2022-12-08T17:58:54.585Z,3.60
2022-12-08T18:01:25.196Z,3.50
2022-12-08T18:03:53.512Z,3.50
2022-12-08T18:06:23.691Z,3.40
2022-12-08T18:08:53.960Z,3.50
2022-12-08T18:11:22.339Z,3.40
2022-12-08T18:13:51.857Z,3.30
2022-12-08T18:16:22.176Z,3.40
2022-12-08T18:18:52.242Z,3.50
2022-12-08T18:21:23.675Z,3.30
2022-12-08T18:23:52.547Z,3.40
2022-12-08T18:26:20.871Z,3.30
2022-12-08T18:28:49.516Z,3.20
2022-12-08T18:31:21.912Z,3.10
2022-12-08T18:33:54.611Z,3.00
2022-12-08T18:36:25.625Z,3.00
2022-12-08T18:38:54.736Z,2.90
2022-12-08T18:41:26.806Z,2.80
2022-12-08T18:43:56.984Z,2.80
2022-12-08T18:46:25.973Z,2.70
2022-12-08T18:48:55.694Z,2.70
2022-12-08T18:51:25.139Z,2.60
2022-12-08T18:53:53.724Z,2.70
2022-12-08T18:56:24.652Z,2.50
2022-12-08T18:58:53.011Z,2.50
2022-12-08T19:01:21.439Z,2.40
2022-12-08T19:04:27.201Z,2.30
2022-12-08T19:06:40.720Z,2.30
2022-12-08T19:09:09.892Z,2.20
2022-12-08T19:11:38.095Z,2.30
2022-12-08T19:14:07.267Z,2.20
2022-12-08T19:16:35.896Z,2.10
2022-12-08T19:19:04.435Z,2.00
2022-12-08T19:21:32.827Z,1.90
2022-12-08T19:24:02.480Z,1.90
2022-12-08T19:26:30.829Z,2.00
2022-12-08T19:28:59.394Z,1.80
2022-12-08T19:31:27.745Z,1.80
2022-12-08T19:33:56.059Z,1.70
2022-12-08T19:36:26.035Z,1.70
2022-12-08T19:39:12.199Z,1.70
2022-12-08T19:41:59.508Z,1.60
2022-12-08T19:44:47.119Z,1.50
2022-12-08T19:47:15.438Z,1.50
2022-12-08T19:49:43.706Z,1.50
2022-12-08T19:52:11.989Z,1.50
2022-12-08T19:54:40.222Z,1.40
2022-12-08T19:57:11.538Z,1.40
2022-12-08T19:59:40.444Z,1.30
2022-12-08T20:02:09.017Z,1.40
2022-12-08T20:04:37.366Z,1.20
2022-12-08T20:07:05.585Z,1.20
2022-12-08T20:09:33.843Z,1.20
2022-12-08T20:12:02.108Z,1.10
2022-12-08T20:14:31.674Z,1.10
2022-12-08T20:16:59.970Z,1.10
2022-12-08T20:19:28.198Z,1.10
2022-12-08T20:21:57.574Z,1.10
2022-12-08T20:24:25.885Z,1.10
2022-12-08T20:26:54.133Z,1.00
2022-12-08T20:29:22.331Z,1.00
2022-12-08T20:31:51.988Z,0.90
2022-12-08T20:34:20.904Z,1.10
2022-12-08T20:36:49.320Z,1.10
2022-12-08T20:39:19.572Z,0.90
2022-12-08T20:41:48.207Z,1.00
2022-12-08T20:44:16.472Z,0.80
2022-12-08T20:46:49.435Z,0.80
2022-12-08T20:49:19.518Z,0.80
2022-12-08T20:51:47.945Z,0.70
2022-12-08T20:54:16.325Z,0.70
2022-12-08T20:56:48.292Z,0.60
2022-12-08T20:59:18.229Z,0.70
2022-12-08T21:01:46.850Z,0.60
2022-12-08T21:04:16.690Z,0.60
2022-12-08T21:06:46.566Z,0.50
2022-12-08T21:09:15.034Z,0.50
2022-12-08T21:11:43.435Z,0.50
2022-12-08T21:14:11.996Z,0.50
2022-12-08T21:16:40.415Z,0.50
2022-12-08T21:19:09.310Z,0.50
2022-12-08T21:21:37.692Z,0.40
2022-12-08T21:24:10.632Z,0.30
2022-12-08T21:26:39.177Z,0.40
2022-12-08T21:29:07.454Z,0.30
2022-12-08T21:31:36.368Z,0.30
2022-12-08T21:34:05.036Z,0.30
2022-12-08T21:36:33.471Z,0.40
2022-12-08T21:39:02.804Z,0.30
2022-12-08T21:41:50.316Z,0.30
2022-12-08T21:44:19.552Z,0.30
2022-12-08T21:46:48.405Z,0.30
2022-12-08T21:49:17.436Z,0.20
2022-12-08T21:51:45.933Z,0.30
2022-12-08T21:54:18.767Z,0.20
2022-12-08T21:56:50.472Z,0.20
2022-12-08T21:59:19.708Z,0.30
2022-12-08T22:01:48.318Z,0.20
2022-12-08T22:04:18.982Z,0.20
2022-12-08T22:06:47.427Z,0.20
2022-12-08T22:09:15.945Z,0.20
2022-12-08T22:11:44.911Z,0.20
2022-12-08T22:14:15.447Z,0.20
2022-12-08T22:16:44.319Z,0.20
2022-12-08T22:19:13.453Z,0.10
2022-12-08T22:21:42.008Z,0.20
2022-12-08T22:24:10.678Z,0.10
2022-12-08T22:26:38.980Z,0.10
2022-12-08T22:29:07.281Z,0.10
2022-12-08T22:31:37.109Z,0.10
2022-12-08T22:34:05.940Z,0.10
2022-12-08T22:36:34.370Z,0.20
2022-12-08T22:39:03.601Z,0.20
2022-12-08T22:41:31.975Z,0.20
2022-12-08T22:44:00.391Z,0.30
2022-12-08T22:46:28.936Z,0.30
2022-12-08T22:48:58.720Z,0.40
2022-12-08T22:51:26.957Z,0.40
2022-12-08T22:53:55.249Z,0.50
2022-12-08T22:56:23.748Z,0.60
2022-12-08T22:58:52.076Z,0.60
2022-12-08T23:01:25.047Z,0.70
2022-12-08T23:03:53.498Z,0.80
2022-12-08T23:06:23.496Z,0.90
2022-12-08T23:08:52.291Z,0.90
2022-12-08T23:11:21.443Z,0.90
2022-12-08T23:13:49.695Z,0.90
2022-12-08T23:16:18.083Z,1.00
2022-12-08T23:18:47.846Z,1.00
2022-12-08T23:21:19.501Z,1.00
2022-12-08T23:23:49.528Z,1.00
2022-12-08T23:26:21.186Z,1.10
2022-12-08T23:28:50.248Z,1.10
2022-12-08T23:31:18.906Z,1.20
2022-12-08T23:33:47.466Z,1.10
2022-12-08T23:36:17.221Z,1.10
2022-12-08T23:38:45.588Z,1.20
2022-12-08T23:41:16.732Z,1.30
2022-12-08T23:43:46.721Z,1.30
2022-12-08T23:46:16.152Z,1.40
2022-12-08T23:48:44.777Z,1.30
2022-12-08T23:51:14.227Z,1.30
2022-12-08T23:53:42.672Z,1.30
2022-12-08T23:56:13.313Z,1.20
2022-12-08T23:58:44.088Z,1.10
